Time;durP1;ratioP1;P1;durP2;ratioP2;P2;SDS_P1;SDS_P2;PMS_P1;PMS_P2;Temp;Humidity;BMP_temperature;BMP_pressure;BME280_temperature;BME280_humidity;BME280_pressure;Samples;Min_cycle;Max_cycle;Signal;HPM_P1;HPM_P2
2023/12/22 00:00:09;;;;;;;3.25;1.40;;;;;;;;;;5076695;28;20017;-73
2023/12/22 00:02:35;;;;;;;3.67;1.20;;;;;;;;;;5058547;28;20023;-72
2023/12/22 00:05:00;;;;;;;3.50;1.50;;;;;;;;;;5076487;28;20032;-72
2023/12/22 00:07:26;;;;;;;1.60;0.98;;;;;;;;;;5075193;28;20054;-72
2023/12/22 00:09:51;;;;;;;2.85;1.35;;;;;;;;;;5076419;28;20036;-72
2023/12/22 00:12:16;;;;;;;2.65;1.42;;;;;;;;;;5092006;28;20066;-73
2023/12/22 00:14:42;;;;;;;1.85;1.17;;;;;;;;;;5075159;28;20043;-72
2023/12/22 00:17:07;;;;;;;1.85;0.95;;;;;;;;;;5076207;28;20029;-73
2023/12/22 00:19:32;;;;;;;1.67;1.00;;;;;;;;;;5076178;28;20024;-72
2023/12/22 00:21:58;;;;;;;1.92;1.13;;;;;;;;;;5076119;28;20467;-72
2023/12/22 00:24:23;;;;;;;2.03;1.23;;;;;;;;;;5076156;28;20032;-73
2023/12/22 00:26:49;;;;;;;2.72;1.20;;;;;;;;;;5076157;28;20028;-72
2023/12/22 00:29:14;;;;;;;1.05;0.80;;;;;;;;;;5074543;28;20041;-73
2023/12/22 00:31:40;;;;;;;0.73;0.70;;;;;;;;;;5076296;28;20441;-72
2023/12/22 00:34:05;;;;;;;2.67;1.42;;;;;;;;;;5085559;22;20099;-73
2023/12/22 00:36:31;;;;;;;2.80;1.50;;;;;;;;;;5075970;28;20020;-72
2023/12/22 00:38:56;;;;;;;1.75;0.80;;;;;;;;;;5075867;28;20029;-73
2023/12/22 00:41:21;;;;;;;2.92;1.20;;;;;;;;;;5075882;28;20440;-73
2023/12/22 00:43:46;;;;;;;2.90;1.40;;;;;;;;;;5075826;28;20024;-72
2023/12/22 00:46:12;;;;;;;2.55;1.02;;;;;;;;;;5075797;28;20119;-72
2023/12/22 00:48:38;;;;;;;1.55;1.00;;;;;;;;;;5075732;28;20078;-72
2023/12/22 00:51:03;;;;;;;2.95;1.05;;;;;;;;;;5074587;28;20475;-72
2023/12/22 00:53:29;;;;;;;2.17;1.30;;;;;;;;;;5075921;28;20514;-72
2023/12/22 00:55:54;;;;;;;2.03;0.57;;;;;;;;;;5076465;28;20028;-72
2023/12/22 00:58:19;;;;;;;2.15;0.60;;;;;;;;;;5075496;28;20082;-72
2023/12/22 01:00:44;;;;;;;2.20;1.13;;;;;;;;;;5076057;28;20044;-72
2023/12/22 01:03:11;;;;;;;2.40;0.57;;;;;;;;;;5076365;28;20374;-73
2023/12/22 01:05:37;;;;;;;1.83;0.90;;;;;;;;;;5075979;28;20025;-72
2023/12/22 01:08:02;;;;;;;2.72;1.00;;;;;;;;;;5075635;28;20043;-72
2023/12/22 01:10:28;;;;;;;3.58;0.70;;;;;;;;;;5075589;28;20044;-72
2023/12/22 01:12:54;;;;;;;1.77;0.85;;;;;;;;;;5075566;28;20040;-73
2023/12/22 01:15:19;;;;;;;2.45;0.80;;;;;;;;;;5057312;28;20391;-73
2023/12/22 01:17:44;;;;;;;1.23;0.57;;;;;;;;;;5057278;28;20489;-72
2023/12/22 01:20:10;;;;;;;1.60;0.90;;;;;;;;;;5075108;28;20070;-73
2023/12/22 01:22:38;;;;;;;2.38;0.60;;;;;;;;;;5075581;28;20103;-73
2023/12/22 01:25:04;;;;;;;2.53;0.85;;;;;;;;;;5075047;28;20560;-73
2023/12/22 01:27:30;;;;;;;4.43;0.90;;;;;;;;;;5075205;28;20090;-73
2023/12/22 01:29:56;;;;;;;0.50;0.50;;;;;;;;;;5040862;28;20036;-73
2023/12/22 01:32:21;;;;;;;1.35;0.90;;;;;;;;;;5074904;28;20383;-72
2023/12/22 01:34:46;;;;;;;2.65;1.17;;;;;;;;;;5086824;28;20148;-73
2023/12/22 01:37:12;;;;;;;4.03;1.00;;;;;;;;;;5077445;28;20064;-72
2023/12/22 01:39:37;;;;;;;2.38;0.80;;;;;;;;;;5094934;28;20382;-72
2023/12/22 01:42:03;;;;;;;2.38;1.00;;;;;;;;;;5076813;28;20520;-72
2023/12/22 01:44:28;;;;;;;3.03;0.95;;;;;;;;;;5077127;28;20028;-72
2023/12/22 01:46:53;;;;;;;1.35;0.80;;;;;;;;;;5095113;28;20028;-73
2023/12/22 01:49:20;;;;;;;2.03;0.90;;;;;;;;;;5076597;28;20036;-73
2023/12/22 01:51:45;;;;;;;4.57;1.00;;;;;;;;;;5076563;28;20024;-74
2023/12/22 01:54:10;;;;;;;0.40;0.40;;;;;;;;;;5076563;28;20077;-74
2023/12/22 01:56:36;;;;;;;1.30;0.65;;;;;;;;;;5059947;28;20445;-74
2023/12/22 01:59:02;;;;;;;3.60;0.75;;;;;;;;;;5094564;28;20123;-74
2023/12/22 02:01:27;;;;;;;3.05;1.02;;;;;;;;;;5077041;28;20024;-81
2023/12/22 02:03:53;;;;;;;1.02;0.80;;;;;;;;;;5076459;28;20034;-81
2023/12/22 02:06:19;;;;;;;2.80;1.15;;;;;;;;;;5095174;28;20052;-77
2023/12/22 02:08:47;;;;;;;2.50;0.82;;;;;;;;;;5094479;28;20034;-77
2023/12/22 02:11:16;;;;;;;2.00;1.10;;;;;;;;;;5076331;28;20028;-79
2023/12/22 02:13:45;;;;;;;4.13;1.17;;;;;;;;;;5076582;28;20047;-78
2023/12/22 02:16:20;;;;;;;1.75;0.80;;;;;;;;;;5076244;28;20027;-78
2023/12/22 02:18:47;;;;;;;2.38;1.08;;;;;;;;;;5094310;28;20077;-78
2023/12/22 02:21:12;;;;;;;4.07;0.98;;;;;;;;;;5094369;28;20024;-78
2023/12/22 02:23:38;;;;;;;3.42;1.45;;;;;;;;;;5094268;28;20511;-78
2023/12/22 02:26:07;;;;;;;2.13;1.17;;;;;;;;;;5094472;28;20032;-78
2023/12/22 02:28:33;;;;;;;3.13;1.42;;;;;;;;;;5094483;28;20052;-78
2023/12/22 02:31:14;;;;;;;4.07;1.48;;;;;;;;;;5076048;28;20032;-79
2023/12/22 02:33:41;;;;;;;0.60;0.50;;;;;;;;;;5093973;28;20032;-80
2023/12/22 02:36:07;;;;;;;1.92;1.15;;;;;;;;;;5094415;28;20026;-76
2023/12/22 02:38:33;;;;;;;4.50;2.03;;;;;;;;;;5076189;28;20039;-75
2023/12/22 02:40:58;;;;;;;2.30;0.75;;;;;;;;;;5094265;28;20028;-75
2023/12/22 02:43:24;;;;;;;5.65;2.40;;;;;;;;;;5094224;28;20088;-75
2023/12/22 02:45:50;;;;;;;0.75;0.75;;;;;;;;;;5076353;28;20115;-75
2023/12/22 02:48:15;;;;;;;4.45;1.85;;;;;;;;;;5076279;28;20028;-75
2023/12/22 02:50:41;;;;;;;0.88;0.60;;;;;;;;;;5075750;28;20028;-74
2023/12/22 02:53:06;;;;;;;3.33;1.05;;;;;;;;;;5093798;28;20047;-74
2023/12/22 02:55:31;;;;;;;0.85;0.63;;;;;;;;;;5094068;28;20477;-74
2023/12/22 02:57:57;;;;;;;3.50;1.35;;;;;;;;;;5082158;23;20486;-72
2023/12/22 03:00:22;;;;;;;7.00;1.92;;;;;;;;;;5073534;28;20359;-73
2023/12/22 03:02:47;;;;;;;3.03;1.15;;;;;;;;;;5073447;28;20461;-72
2023/12/22 03:05:13;;;;;;;2.45;1.52;;;;;;;;;;5055625;28;20461;-73
2023/12/22 03:07:41;;;;;;;1.02;0.85;;;;;;;;;;5073463;28;20028;-76
2023/12/22 03:10:07;;;;;;;1.23;0.73;;;;;;;;;;5055420;28;20036;-76
2023/12/22 03:12:32;;;;;;;2.20;1.00;;;;;;;;;;5055829;28;20036;-78
2023/12/22 03:14:58;;;;;;;2.58;1.35;;;;;;;;;;5077170;28;20036;-77
2023/12/22 03:17:24;;;;;;;1.38;1.02;;;;;;;;;;5060084;28;20068;-77
2023/12/22 03:19:49;;;;;;;3.15;1.63;;;;;;;;;;5077753;28;20040;-76
2023/12/22 03:22:14;;;;;;;1.67;0.95;;;;;;;;;;5077595;28;20121;-76
2023/12/22 03:24:39;;;;;;;1.50;0.82;;;;;;;;;;5077604;28;20028;-76
2023/12/22 03:27:05;;;;;;;2.05;1.27;;;;;;;;;;5077241;28;20029;-74
2023/12/22 03:29:30;;;;;;;1.83;0.98;;;;;;;;;;5077235;28;20383;-75
2023/12/22 03:31:56;;;;;;;2.33;1.02;;;;;;;;;;5077144;28;20024;-75
2023/12/22 03:34:21;;;;;;;2.72;1.40;;;;;;;;;;5077696;28;20025;-75
2023/12/22 03:36:48;;;;;;;2.13;1.08;;;;;;;;;;5076998;28;20035;-75
2023/12/22 03:39:14;;;;;;;1.83;0.90;;;;;;;;;;5077136;28;20131;-74
2023/12/22 03:41:39;;;;;;;1.92;0.90;;;;;;;;;;5077212;28;20095;-79
2023/12/22 03:44:05;;;;;;;1.80;1.02;;;;;;;;;;5077035;28;20474;-79
2023/12/22 03:46:30;;;;;;;4.05;1.05;;;;;;;;;;5077369;28;20024;-79
2023/12/22 03:48:55;;;;;;;1.95;1.10;;;;;;;;;;5077272;28;20032;-79
2023/12/22 03:51:20;;;;;;;1.45;1.05;;;;;;;;;;5076862;28;20033;-77
2023/12/22 03:53:46;;;;;;;0.93;0.85;;;;;;;;;;5058861;28;20021;-77
2023/12/22 03:56:11;;;;;;;2.53;1.27;;;;;;;;;;5076799;28;20378;-81
2023/12/22 03:58:37;;;;;;;1.80;0.80;;;;;;;;;;5076494;28;20470;-81
2023/12/22 04:01:02;;;;;;;2.38;1.17;;;;;;;;;;5077024;28;20060;-75
2023/12/22 04:03:28;;;;;;;1.98;1.13;;;;;;;;;;5077140;28;20447;-75
2023/12/22 04:05:53;;;;;;;0.85;0.75;;;;;;;;;;5077061;28;20035;-75
2023/12/22 04:08:20;;;;;;;2.25;1.27;;;;;;;;;;5041858;28;20028;-75
2023/12/22 04:10:46;;;;;;;2.22;1.00;;;;;;;;;;5059174;28;20374;-78
2023/12/22 04:13:12;;;;;;;0.95;0.88;;;;;;;;;;5059325;28;20032;-78
2023/12/22 04:15:39;;;;;;;2.85;0.80;;;;;;;;;;5076854;28;20146;-78
2023/12/22 04:18:04;;;;;;;1.52;0.63;;;;;;;;;;5058595;28;20363;-78
2023/12/22 04:20:31;;;;;;;0.98;0.50;;;;;;;;;;5076239;28;20035;-77
2023/12/22 04:22:56;;;;;;;3.78;0.88;;;;;;;;;;5076254;28;20103;-76
2023/12/22 04:25:23;;;;;;;1.23;0.85;;;;;;;;;;5076014;28;20212;-77
2023/12/22 04:27:49;;;;;;;2.20;0.85;;;;;;;;;;5076945;28;20021;-77
2023/12/22 04:30:14;;;;;;;3.88;1.38;;;;;;;;;;5058671;28;20043;-78
2023/12/22 04:32:40;;;;;;;3.15;1.00;;;;;;;;;;5076414;28;20020;-76
2023/12/22 04:35:05;;;;;;;1.42;0.47;;;;;;;;;;5051063;22;20053;-73
2023/12/22 04:37:31;;;;;;;1.10;0.68;;;;;;;;;;5034700;28;20041;-73
2023/12/22 04:39:57;;;;;;;0.60;0.50;;;;;;;;;;5036101;28;20025;-72
2023/12/22 04:42:22;;;;;;;1.95;1.15;;;;;;;;;;5035398;28;20515;-72
2023/12/22 04:44:48;;;;;;;1.67;0.75;;;;;;;;;;5035720;28;20064;-72
2023/12/22 04:47:14;;;;;;;1.98;0.95;;;;;;;;;;5034988;28;20078;-72
2023/12/22 04:49:39;;;;;;;2.83;0.60;;;;;;;;;;5034731;28;20029;-72
2023/12/22 04:52:04;;;;;;;2.00;1.08;;;;;;;;;;5034749;28;20437;-72
2023/12/22 04:54:30;;;;;;;0.55;0.55;;;;;;;;;;5016986;28;20095;-72
2023/12/22 04:56:55;;;;;;;1.38;0.65;;;;;;;;;;5034404;28;20009;-72
2023/12/22 04:59:21;;;;;;;0.40;0.40;;;;;;;;;;5017781;28;20025;-73
2023/12/22 05:01:46;;;;;;;0.40;0.40;;;;;;;;;;5035222;28;20033;-72
2023/12/22 05:04:14;;;;;;;0.45;0.32;;;;;;;;;;5033654;28;20034;-72
2023/12/22 05:06:40;;;;;;;0.60;0.40;;;;;;;;;;5034369;28;20033;-72
2023/12/22 05:09:09;;;;;;;1.20;0.80;;;;;;;;;;5016872;28;20120;-72
2023/12/22 05:11:34;;;;;;;1.90;1.08;;;;;;;;;;5033676;28;20030;-73
2023/12/22 05:14:00;;;;;;;1.10;1.00;;;;;;;;;;5032621;28;20040;-72
2023/12/22 05:16:25;;;;;;;1.13;0.70;;;;;;;;;;5032481;28;20029;-72
2023/12/22 05:18:50;;;;;;;0.73;0.30;;;;;;;;;;5032353;28;20136;-72
2023/12/22 05:21:16;;;;;;;1.00;0.63;;;;;;;;;;5033659;28;20026;-72
2023/12/22 05:23:41;;;;;;;0.30;0.30;;;;;;;;;;5034087;28;20475;-72
2023/12/22 05:26:07;;;;;;;0.88;0.52;;;;;;;;;;5034062;28;20075;-72
2023/12/22 05:28:32;;;;;;;3.22;0.85;;;;;;;;;;5032773;28;20087;-72
2023/12/22 05:30:57;;;;;;;1.15;0.70;;;;;;;;;;5033903;28;20057;-72
2023/12/22 05:33:23;;;;;;;1.63;0.50;;;;;;;;;;5033885;28;20033;-72
2023/12/22 05:35:48;;;;;;;1.73;0.70;;;;;;;;;;5027112;28;20142;-72
2023/12/22 05:38:14;;;;;;;2.75;0.82;;;;;;;;;;5035924;28;20040;-72
2023/12/22 05:40:39;;;;;;;1.35;0.50;;;;;;;;;;5053618;28;20456;-72
2023/12/22 05:43:04;;;;;;;0.85;0.57;;;;;;;;;;5053618;28;20021;-72
2023/12/22 05:45:30;;;;;;;1.48;0.85;;;;;;;;;;5053437;28;20545;-72
2023/12/22 05:47:55;;;;;;;2.08;0.80;;;;;;;;;;5054271;28;20059;-72
2023/12/22 05:50:20;;;;;;;0.95;0.50;;;;;;;;;;5053742;28;20136;-72
2023/12/22 05:52:46;;;;;;;2.38;0.82;;;;;;;;;;5054243;28;20064;-72
2023/12/22 05:55:11;;;;;;;2.70;0.90;;;;;;;;;;5054148;28;20032;-72
2023/12/22 05:57:37;;;;;;;0.57;0.57;;;;;;;;;;5054138;28;20112;-72
2023/12/22 06:00:07;;;;;;;1.27;0.73;;;;;;;;;;5052887;28;20082;-72
2023/12/22 06:02:32;;;;;;;1.50;0.95;;;;;;;;;;5052853;28;20047;-72
2023/12/22 06:04:57;;;;;;;1.70;0.90;;;;;;;;;;5053807;28;20459;-72
2023/12/22 06:07:23;;;;;;;0.80;0.80;;;;;;;;;;5054053;28;20025;-72
2023/12/22 06:09:49;;;;;;;1.20;0.98;;;;;;;;;;5053836;28;20141;-72
2023/12/22 06:12:14;;;;;;;1.08;0.68;;;;;;;;;;5053799;28;20037;-72
2023/12/22 06:14:41;;;;;;;0.40;0.40;;;;;;;;;;5036093;28;20103;-72
2023/12/22 06:17:06;;;;;;;2.00;0.88;;;;;;;;;;5054695;28;20041;-72
2023/12/22 06:19:32;;;;;;;2.05;0.98;;;;;;;;;;5036568;28;20037;-72
2023/12/22 06:21:57;;;;;;;1.67;0.90;;;;;;;;;;5054386;28;20021;-72
2023/12/22 06:24:24;;;;;;;0.70;0.40;;;;;;;;;;5053464;28;20589;-72
2023/12/22 06:26:50;;;;;;;1.88;0.57;;;;;;;;;;5036023;28;20344;-72
2023/12/22 06:29:15;;;;;;;3.35;0.77;;;;;;;;;;5053444;28;20040;-72
2023/12/22 06:31:41;;;;;;;0.68;0.50;;;;;;;;;;5051613;28;20031;-72
2023/12/22 06:34:07;;;;;;;1.92;0.75;;;;;;;;;;5052955;28;20033;-72
2023/12/22 06:36:32;;;;;;;1.60;0.90;;;;;;;;;;5052949;28;20161;-72
2023/12/22 06:38:58;;;;;;;1.98;0.60;;;;;;;;;;5053191;28;20029;-72
2023/12/22 06:41:24;;;;;;;1.92;0.85;;;;;;;;;;5053689;28;20081;-72
2023/12/22 06:43:50;;;;;;;1.30;0.73;;;;;;;;;;5066251;22;20222;-72
2023/12/22 06:46:22;;;;;;;2.70;0.88;;;;;;;;;;5075609;22;20399;-72
2023/12/22 06:48:48;;;;;;;2.28;1.30;;;;;;;;;;5073015;28;20068;-72
2023/12/22 06:51:22;;;;;;;2.13;1.20;;;;;;;;;;5073634;28;20021;-72
2023/12/22 06:56:21;;;;;;;1.75;1.20;;;;;;;;;;5082349;22;20059;-73
2023/12/22 06:58:48;;;;;;;3.17;1.02;;;;;;;;;;5058887;28;20028;-72
2023/12/22 07:01:22;;;;;;;1.38;1.02;;;;;;;;;;5093726;28;20024;-73
2023/12/22 07:03:48;;;;;;;1.50;1.08;;;;;;;;;;5093755;28;20466;-72
2023/12/22 07:06:14;;;;;;;4.88;1.60;;;;;;;;;;5093658;28;20017;-72
2023/12/22 07:08:40;;;;;;;2.22;1.38;;;;;;;;;;5093612;28;20497;-72
2023/12/22 07:11:05;;;;;;;2.30;1.13;;;;;;;;;;5093376;28;20020;-72
2023/12/22 07:13:30;;;;;;;2.53;1.10;;;;;;;;;;5093568;28;20046;-72
2023/12/22 07:15:56;;;;;;;2.25;1.30;;;;;;;;;;5093471;28;20032;-72
2023/12/22 07:18:21;;;;;;;3.00;1.20;;;;;;;;;;5093455;28;20028;-72
2023/12/22 07:20:46;;;;;;;1.73;1.25;;;;;;;;;;5093591;28;20035;-72
2023/12/22 07:23:12;;;;;;;3.70;1.40;;;;;;;;;;5075305;28;20035;-72
2023/12/22 07:25:40;;;;;;;2.47;1.08;;;;;;;;;;5075359;28;20020;-72
2023/12/22 07:28:06;;;;;;;1.83;1.02;;;;;;;;;;5093441;28;20085;-72
2023/12/22 07:30:31;;;;;;;3.55;1.30;;;;;;;;;;5093422;28;20032;-72
2023/12/22 07:32:56;;;;;;;2.70;1.42;;;;;;;;;;5093417;28;20028;-72
2023/12/22 07:35:22;;;;;;;2.60;1.50;;;;;;;;;;5093391;28;20028;-72
2023/12/22 07:37:47;;;;;;;5.60;1.63;;;;;;;;;;5075277;28;20043;-72
2023/12/22 07:40:14;;;;;;;2.83;1.75;;;;;;;;;;5092039;28;20378;-72
2023/12/22 07:42:39;;;;;;;2.92;1.35;;;;;;;;;;5093364;28;20099;-72
2023/12/22 07:45:05;;;;;;;2.97;1.67;;;;;;;;;;5093299;28;20074;-72
2023/12/22 07:47:31;;;;;;;3.20;1.42;;;;;;;;;;5093368;28;20024;-72
2023/12/22 07:49:56;;;;;;;4.90;1.60;;;;;;;;;;5075178;28;20036;-72
2023/12/22 07:52:21;;;;;;;4.68;1.70;;;;;;;;;;5093239;28;20031;-72
2023/12/22 07:54:47;;;;;;;5.65;2.47;;;;;;;;;;5093180;28;20420;-72
2023/12/22 07:57:12;;;;;;;5.38;2.33;;;;;;;;;;5075016;28;20040;-72
2023/12/22 07:59:38;;;;;;;6.45;2.92;;;;;;;;;;5076585;28;20035;-72
2023/12/22 08:02:03;;;;;;;6.05;2.88;;;;;;;;;;5096916;28;20032;-72
2023/12/22 08:04:28;;;;;;;5.78;3.05;;;;;;;;;;5061961;28;20028;-72
2023/12/22 08:06:54;;;;;;;5.22;2.65;;;;;;;;;;5061991;28;20386;-73
2023/12/22 08:09:19;;;;;;;4.95;2.72;;;;;;;;;;5096710;28;20024;-72
2023/12/22 08:11:46;;;;;;;6.20;3.25;;;;;;;;;;5078547;28;20107;-73
2023/12/22 08:14:12;;;;;;;8.13;3.58;;;;;;;;;;5096732;28;20036;-73
2023/12/22 08:16:37;;;;;;;6.72;2.88;;;;;;;;;;5096596;28;20047;-73
2023/12/22 08:19:03;;;;;;;5.18;2.58;;;;;;;;;;5096916;28;20131;-73
2023/12/22 08:21:28;;;;;;;6.38;2.55;;;;;;;;;;5096501;28;20077;-73
2023/12/22 08:23:54;;;;;;;6.90;2.95;;;;;;;;;;5096476;28;20031;-73
2023/12/22 08:26:19;;;;;;;6.90;2.95;;;;;;;;;;5095586;28;20028;-73
2023/12/22 08:28:44;;;;;;;6.80;3.33;;;;;;;;;;5078727;28;20090;-73
2023/12/22 08:31:10;;;;;;;4.00;2.47;;;;;;;;;;5096310;28;20036;-73
2023/12/22 08:33:36;;;;;;;4.28;3.03;;;;;;;;;;5078218;28;20060;-73
2023/12/22 08:36:01;;;;;;;6.35;2.67;;;;;;;;;;5078169;28;20482;-74
2023/12/22 08:38:27;;;;;;;4.55;2.55;;;;;;;;;;5096147;28;20059;-74
2023/12/22 08:40:53;;;;;;;5.72;3.03;;;;;;;;;;5096255;28;20020;-73
2023/12/22 08:43:19;;;;;;;5.93;3.75;;;;;;;;;;5096134;28;20030;-73
2023/12/22 08:45:44;;;;;;;5.88;3.10;;;;;;;;;;5096025;28;20036;-74
2023/12/22 08:48:10;;;;;;;6.75;3.72;;;;;;;;;;5096006;28;20059;-74
2023/12/22 08:50:36;;;;;;;4.78;2.85;;;;;;;;;;5077794;28;20028;-73
2023/12/22 08:53:01;;;;;;;6.07;3.58;;;;;;;;;;5095991;28;20454;-74
2023/12/22 08:55:26;;;;;;;5.13;2.78;;;;;;;;;;5095863;28;20031;-73
2023/12/22 08:57:52;;;;;;;3.38;2.75;;;;;;;;;;5095546;28;20478;-73
2023/12/22 09:00:18;;;;;;;4.57;2.92;;;;;;;;;;5095024;28;20028;-73
2023/12/22 09:02:44;;;;;;;6.80;2.97;;;;;;;;;;5077988;28;20078;-73
2023/12/22 09:05:09;;;;;;;6.82;3.35;;;;;;;;;;5096028;28;20028;-73
2023/12/22 09:07:35;;;;;;;3.00;2.00;;;;;;;;;;5095753;28;20032;-73
2023/12/22 09:10:00;;;;;;;8.32;4.47;;;;;;;;;;5095444;28;20024;-73
2023/12/22 09:12:25;;;;;;;8.70;5.15;;;;;;;;;;5094582;28;20123;-73
2023/12/22 09:14:51;;;;;;;6.38;3.53;;;;;;;;;;5095467;28;20433;-73
2023/12/22 09:17:16;;;;;;;7.18;3.20;;;;;;;;;;5095343;28;20114;-73
2023/12/22 09:19:42;;;;;;;4.82;2.70;;;;;;;;;;5095355;28;20024;-73
2023/12/22 09:22:08;;;;;;;2.75;2.22;;;;;;;;;;5095306;28;20363;-73
2023/12/22 09:24:33;;;;;;;4.25;2.55;;;;;;;;;;5095232;28;20035;-73
2023/12/22 09:27:02;;;;;;;4.15;3.22;;;;;;;;;;5095347;28;20020;-73
2023/12/22 09:29:29;;;;;;;5.18;2.55;;;;;;;;;;5095181;28;20042;-73
2023/12/22 09:31:54;;;;;;;6.53;3.03;;;;;;;;;;5095166;28;20039;-73
2023/12/22 09:34:19;;;;;;;6.03;3.17;;;;;;;;;;5095362;28;20032;-73
2023/12/22 09:36:45;;;;;;;4.85;3.38;;;;;;;;;;5095060;28;20035;-73
2023/12/22 09:39:11;;;;;;;6.43;4.20;;;;;;;;;;5094907;28;20028;-73
2023/12/22 09:41:36;;;;;;;5.60;2.72;;;;;;;;;;5094945;28;20023;-73
2023/12/22 09:44:03;;;;;;;6.65;3.00;;;;;;;;;;5093670;28;20466;-73
2023/12/22 09:46:30;;;;;;;6.47;3.53;;;;;;;;;;5076770;28;20063;-72
2023/12/22 09:48:55;;;;;;;4.65;3.10;;;;;;;;;;5094791;28;20036;-72
2023/12/22 09:51:21;;;;;;;3.00;2.25;;;;;;;;;;5094939;28;20036;-73
2023/12/22 09:53:47;;;;;;;5.82;3.85;;;;;;;;;;5094724;28;20020;-73
2023/12/22 09:56:13;;;;;;;6.53;3.58;;;;;;;;;;5094492;28;20127;-73
2023/12/22 09:58:39;;;;;;;5.20;2.97;;;;;;;;;;5094594;28;20071;-73
2023/12/22 10:01:05;;;;;;;4.78;3.08;;;;;;;;;;5094604;28;20047;-73
2023/12/22 10:03:32;;;;;;;4.60;2.50;;;;;;;;;;5094560;28;20085;-73
2023/12/22 10:05:58;;;;;;;6.47;3.88;;;;;;;;;;5094599;28;20028;-73
2023/12/22 10:08:24;;;;;;;8.98;4.57;;;;;;;;;;5094500;28;20043;-73
2023/12/22 10:10:52;;;;;;;6.18;4.13;;;;;;;;;;5094485;28;20028;-73
2023/12/22 10:13:17;;;;;;;13.02;7.85;;;;;;;;;;5094443;28;20458;-73
2023/12/22 10:15:43;;;;;;;12.07;7.88;;;;;;;;;;5094356;28;20085;-73
2023/12/22 10:18:11;;;;;;;11.52;6.05;;;;;;;;;;5094207;28;20466;-73
2023/12/22 10:20:37;;;;;;;10.00;5.13;;;;;;;;;;5076067;28;20359;-73
2023/12/22 10:23:02;;;;;;;9.35;4.75;;;;;;;;;;5093957;28;20081;-73
2023/12/22 10:25:32;;;;;;;4.93;3.17;;;;;;;;;;5094180;28;20016;-73
2023/12/22 10:27:58;;;;;;;6.13;3.75;;;;;;;;;;5094130;28;20031;-73
2023/12/22 10:30:26;;;;;;;4.15;2.42;;;;;;;;;;5094087;28;20031;-73
2023/12/22 10:32:51;;;;;;;2.58;2.38;;;;;;;;;;5094072;28;20048;-73
2023/12/22 10:35:17;;;;;;;3.17;2.33;;;;;;;;;;5076029;28;20087;-73
2023/12/22 10:37:42;;;;;;;4.28;2.88;;;;;;;;;;5075932;28;20085;-73
2023/12/22 10:40:08;;;;;;;3.10;2.38;;;;;;;;;;5075905;28;20058;-73
2023/12/22 10:42:34;;;;;;;4.35;2.60;;;;;;;;;;5093970;28;20103;-73
2023/12/22 10:45:00;;;;;;;4.07;2.90;;;;;;;;;;5075917;28;20028;-73
2023/12/22 10:47:25;;;;;;;2.70;2.08;;;;;;;;;;5093833;28;20595;-73
2023/12/22 10:49:50;;;;;;;2.53;1.55;;;;;;;;;;5093837;28;20414;-73
2023/12/22 10:52:20;;;;;;;6.60;2.15;;;;;;;;;;5094114;28;20381;-74
2023/12/22 10:55:02;;;;;;;4.47;2.80;;;;;;;;;;5092067;28;20028;-73
2023/12/22 10:57:28;;;;;;;2.90;1.98;;;;;;;;;;5075445;28;20040;-73
2023/12/22 10:59:55;;;;;;;4.38;2.20;;;;;;;;;;5093721;28;20508;-74
2023/12/22 11:02:22;;;;;;;3.38;1.75;;;;;;;;;;5094010;28;20036;-74
2023/12/22 11:04:50;;;;;;;1.83;1.52;;;;;;;;;;5093659;28;20363;-73
2023/12/22 11:07:16;;;;;;;2.90;1.83;;;;;;;;;;5092416;28;20137;-73
2023/12/22 11:09:43;;;;;;;1.70;1.40;;;;;;;;;;5093742;28;20032;-73
2023/12/22 11:12:10;;;;;;;3.65;1.65;;;;;;;;;;5093569;28;20070;-73
2023/12/22 11:14:36;;;;;;;2.65;1.80;;;;;;;;;;5093570;28;20527;-73
2023/12/22 11:17:02;;;;;;;2.25;1.80;;;;;;;;;;5093687;28;20036;-73
2023/12/22 11:19:30;;;;;;;3.15;2.15;;;;;;;;;;5093546;28;20119;-73
2023/12/22 11:21:57;;;;;;;4.22;2.30;;;;;;;;;;5093785;28;20035;-73
2023/12/22 11:24:23;;;;;;;2.88;1.83;;;;;;;;;;5093503;28;20095;-73
2023/12/22 11:26:49;;;;;;;2.83;1.80;;;;;;;;;;5093484;28;20438;-72
2023/12/22 11:29:15;;;;;;;5.97;2.30;;;;;;;;;;5093464;28;20020;-73
2023/12/22 11:31:41;;;;;;;6.05;2.65;;;;;;;;;;5093400;28;20047;-73
2023/12/22 11:34:07;;;;;;;2.05;1.33;;;;;;;;;;5094073;28;20064;-73
2023/12/22 11:36:33;;;;;;;3.35;2.00;;;;;;;;;;5097495;28;20036;-72
2023/12/22 11:38:59;;;;;;;2.63;1.33;;;;;;;;;;5079245;28;20436;-73
2023/12/22 11:41:26;;;;;;;1.48;0.82;;;;;;;;;;5097269;28;20020;-72
2023/12/22 11:43:52;;;;;;;4.45;1.60;;;;;;;;;;5079201;28;20095;-73
2023/12/22 11:46:18;;;;;;;1.98;1.15;;;;;;;;;;5097226;28;20062;-73
2023/12/22 11:48:47;;;;;;;2.95;1.30;;;;;;;;;;5078991;28;20028;-73
2023/12/22 11:51:14;;;;;;;1.58;1.20;;;;;;;;;;5097175;28;20547;-72
2023/12/22 11:53:39;;;;;;;2.30;1.65;;;;;;;;;;5097033;28;20031;-72
2023/12/22 11:56:07;;;;;;;1.60;1.50;;;;;;;;;;5096808;28;20433;-73
2023/12/22 11:58:34;;;;;;;1.92;1.45;;;;;;;;;;5078628;28;20033;-72
2023/12/22 12:01:01;;;;;;;3.95;1.73;;;;;;;;;;5079184;28;20024;-73
2023/12/22 12:03:27;;;;;;;3.38;2.05;;;;;;;;;;5096866;28;20027;-73
2023/12/22 12:06:09;;;;;;;3.00;1.60;;;;;;;;;;5078600;28;20122;-72
2023/12/22 12:08:35;;;;;;;3.30;1.52;;;;;;;;;;5096841;28;20032;-72
2023/12/22 12:11:03;;;;;;;2.75;2.13;;;;;;;;;;5096745;28;20497;-72
2023/12/22 12:13:30;;;;;;;2.00;0.95;;;;;;;;;;5096699;28;20031;-72
2023/12/22 12:15:59;;;;;;;1.30;0.95;;;;;;;;;;5096646;28;20039;-72
2023/12/22 12:18:26;;;;;;;0.40;0.40;;;;;;;;;;5096478;28;20474;-73
2023/12/22 12:20:52;;;;;;;2.83;1.63;;;;;;;;;;5096582;28;20089;-73
2023/12/22 12:23:17;;;;;;;2.88;1.73;;;;;;;;;;5096556;28;20059;-72
2023/12/22 12:25:43;;;;;;;2.22;1.88;;;;;;;;;;5095216;28;20024;-72
2023/12/22 12:28:08;;;;;;;2.53;1.52;;;;;;;;;;5077645;28;20032;-72
2023/12/22 12:30:35;;;;;;;3.63;2.38;;;;;;;;;;5095602;28;20386;-73
2023/12/22 12:33:07;;;;;;;3.30;1.85;;;;;;;;;;5060549;28;20374;-73
2023/12/22 12:35:33;;;;;;;2.97;2.30;;;;;;;;;;5095208;28;20028;-73
2023/12/22 12:37:59;;;;;;;2.08;1.63;;;;;;;;;;5095231;28;20090;-73
2023/12/22 12:40:26;;;;;;;2.80;2.15;;;;;;;;;;5095157;28;20069;-73
2023/12/22 12:42:52;;;;;;;0.93;0.77;;;;;;;;;;5095075;28;20024;-73
2023/12/22 12:45:23;;;;;;;3.42;2.30;;;;;;;;;;5095040;28;20358;-73
2023/12/22 12:47:58;;;;;;;3.35;2.40;;;;;;;;;;5095023;28;20032;-72
2023/12/22 12:50:24;;;;;;;2.13;1.20;;;;;;;;;;5076889;28;20032;-75
2023/12/22 12:52:54;;;;;;;1.83;1.65;;;;;;;;;;5095047;28;20028;-74
2023/12/22 12:55:20;;;;;;;2.90;1.85;;;;;;;;;;5076763;28;20024;-74
2023/12/22 12:57:48;;;;;;;4.45;2.22;;;;;;;;;;5094549;28;20075;-74
2023/12/22 13:00:13;;;;;;;1.25;0.98;;;;;;;;;;5076749;28;20489;-75
2023/12/22 13:02:39;;;;;;;3.00;2.00;;;;;;;;;;5094766;28;20024;-76
2023/12/22 13:05:04;;;;;;;1.00;0.85;;;;;;;;;;5095144;28;20082;-77
2023/12/22 13:07:30;;;;;;;1.10;1.00;;;;;;;;;;5095653;28;20024;-77
2023/12/22 13:09:57;;;;;;;0.65;0.65;;;;;;;;;;5095301;28;20085;-77
2023/12/22 13:12:23;;;;;;;2.30;1.35;;;;;;;;;;5095333;28;20378;-77
2023/12/22 13:14:49;;;;;;;1.00;0.90;;;;;;;;;;5095456;28;20044;-77
2023/12/22 13:17:22;;;;;;;1.00;0.90;;;;;;;;;;5100965;22;20024;-73
2023/12/22 13:19:50;;;;;;;1.50;0.90;;;;;;;;;;5032882;28;20053;-77
2023/12/22 13:22:15;;;;;;;1.60;1.05;;;;;;;;;;5035026;28;20155;-77
2023/12/22 13:24:40;;;;;;;1.48;1.20;;;;;;;;;;5035002;28;20112;-77
2023/12/22 13:27:06;;;;;;;2.35;1.10;;;;;;;;;;5035043;28;20442;-77
2023/12/22 13:29:44;;;;;;;3.17;1.90;;;;;;;;;;5034974;28;20085;-78
2023/12/22 13:32:14;;;;;;;1.58;1.38;;;;;;;;;;5034863;28;20037;-77
2023/12/22 13:34:46;;;;;;;1.73;1.42;;;;;;;;;;5034830;28;20527;-78
2023/12/22 13:37:11;;;;;;;1.58;1.48;;;;;;;;;;5033510;28;20390;-78
2023/12/22 13:39:37;;;;;;;2.17;1.58;;;;;;;;;;5015172;28;20421;-77
2023/12/22 13:42:03;;;;;;;2.72;1.70;;;;;;;;;;5032824;28;20048;-78
2023/12/22 13:44:28;;;;;;;2.08;1.55;;;;;;;;;;5032450;28;20372;-78
2023/12/22 13:46:53;;;;;;;1.80;1.00;;;;;;;;;;5032979;28;20108;-72
2023/12/22 13:49:19;;;;;;;3.15;1.35;;;;;;;;;;5032770;28;20059;-72
2023/12/22 13:51:45;;;;;;;2.47;1.27;;;;;;;;;;5015276;28;20458;-72
2023/12/22 13:54:10;;;;;;;2.08;1.40;;;;;;;;;;5034407;28;20044;-72
2023/12/22 13:56:40;;;;;;;2.88;1.30;;;;;;;;;;5016334;28;20472;-78
2023/12/22 13:59:05;;;;;;;1.15;0.90;;;;;;;;;;5088059;22;20061;-78
2023/12/22 14:01:31;;;;;;;2.17;1.25;;;;;;;;;;5073804;28;20029;-77
2023/12/22 14:03:59;;;;;;;1.15;0.88;;;;;;;;;;5076061;28;20043;-77
2023/12/22 14:06:28;;;;;;;1.80;1.35;;;;;;;;;;5077372;28;20060;-77
2023/12/22 14:08:54;;;;;;;1.27;1.00;;;;;;;;;;5076660;28;20029;-77
2023/12/22 14:11:20;;;;;;;2.47;1.40;;;;;;;;;;5074885;28;20040;-77
2023/12/22 14:13:45;;;;;;;2.50;1.05;;;;;;;;;;5072429;28;20137;-78
2023/12/22 14:16:11;;;;;;;0.88;0.70;;;;;;;;;;5073259;28;20360;-78
2023/12/22 14:18:36;;;;;;;1.85;1.13;;;;;;;;;;5071793;28;20044;-78
2023/12/22 14:21:05;;;;;;;1.27;0.60;;;;;;;;;;5073039;28;20016;-78
2023/12/22 14:23:30;;;;;;;3.15;1.05;;;;;;;;;;5073173;28;20489;-78
2023/12/22 14:25:56;;;;;;;1.60;1.13;;;;;;;;;;5088717;28;20020;-78
2023/12/22 14:28:21;;;;;;;1.08;0.70;;;;;;;;;;5088440;28;20497;-78
2023/12/22 14:30:46;;;;;;;1.20;1.10;;;;;;;;;;5072904;28;20563;-77
2023/12/22 14:33:13;;;;;;;1.25;0.80;;;;;;;;;;5072786;28;20036;-77
2023/12/22 14:35:38;;;;;;;2.00;1.00;;;;;;;;;;5071801;28;20032;-79
2023/12/22 14:38:03;;;;;;;3.72;1.00;;;;;;;;;;5072841;28;20036;-78